sensor_id;sensor_type;location;lat;lon;timestamp;temperature;humidity
16247;DHT22;8231;50.866;7.944;2022-08-06T00:02:19;10.70;99.90
16247;DHT22;8231;50.866;7.944;2022-08-06T00:04:49;10.70;99.90
16247;DHT22;8231;50.866;7.944;2022-08-06T00:07:18;10.70;99.90
16247;DHT22;8231;50.866;7.944;2022-08-06T00:09:52;10.70;99.90
16247;DHT22;8231;50.866;7.944;2022-08-06T00:12:26;10.60;99.90
16247;DHT22;8231;50.866;7.944;2022-08-06T00:14:56;10.60;99.90
16247;DHT22;8231;50.866;7.944;2022-08-06T00:17:24;10.50;99.90
16247;DHT22;8231;50.866;7.944;2022-08-06T00:19:59;10.50;99.90
16247;DHT22;8231;50.866;7.944;2022-08-06T00:22:30;10.50;99.90
16247;DHT22;8231;50.866;7.944;2022-08-06T00:24:59;10.50;99.90
16247;DHT22;8231;50.866;7.944;2022-08-06T00:27:27;10.40;99.90
16247;DHT22;8231;50.866;7.944;2022-08-06T00:30:06;10.40;99.90
16247;DHT22;8231;50.866;7.944;2022-08-06T00:32:44;10.40;99.90
16247;DHT22;8231;50.866;7.944;2022-08-06T00:35:19;10.40;99.90
16247;DHT22;8231;50.866;7.944;2022-08-06T00:37:51;10.40;99.90
16247;DHT22;8231;50.866;7.944;2022-08-06T00:40:25;10.30;99.90
16247;DHT22;8231;50.866;7.944;2022-08-06T00:42:55;10.20;99.90
16247;DHT22;8231;50.866;7.944;2022-08-06T00:45:23;10.20;99.90
16247;DHT22;8231;50.866;7.944;2022-08-06T00:47:52;10.20;99.90
16247;DHT22;8231;50.866;7.944;2022-08-06T00:50:30;10.20;99.90
16247;DHT22;8231;50.866;7.944;2022-08-06T00:52:59;10.20;99.90
16247;DHT22;8231;50.866;7.944;2022-08-06T00:55:28;10.20;99.90
16247;DHT22;8231;50.866;7.944;2022-08-06T00:58:04;10.10;99.90
16247;DHT22;8231;50.866;7.944;2022-08-06T01:00:39;10.10;99.90
16247;DHT22;8231;50.866;7.944;2022-08-06T01:03:17;10.00;99.90
16247;DHT22;8231;50.866;7.944;2022-08-06T01:06:05;10.00;99.90
16247;DHT22;8231;50.866;7.944;2022-08-06T01:08:55;9.90;99.90
16247;DHT22;8231;50.866;7.944;2022-08-06T01:11:24;10.00;99.90
16247;DHT22;8231;50.866;7.944;2022-08-06T01:13:53;10.00;99.90
16247;DHT22;8231;50.866;7.944;2022-08-06T01:16:35;10.00;99.90
16247;DHT22;8231;50.866;7.944;2022-08-06T01:19:22;10.10;99.90
16247;DHT22;8231;50.866;7.944;2022-08-06T01:22:40;10.00;99.90
16247;DHT22;8231;50.866;7.944;2022-08-06T01:25:40;10.00;99.90
16247;DHT22;8231;50.866;7.944;2022-08-06T01:28:20;10.00;99.90
16247;DHT22;8231;50.866;7.944;2022-08-06T01:30:59;10.00;99.90
16247;DHT22;8231;50.866;7.944;2022-08-06T01:33:33;10.00;99.90
16247;DHT22;8231;50.866;7.944;2022-08-06T01:36:09;10.00;99.90
16247;DHT22;8231;50.866;7.944;2022-08-06T01:38:42;10.00;99.90
16247;DHT22;8231;50.866;7.944;2022-08-06T01:41:29;10.00;99.90
16247;DHT22;8231;50.866;7.944;2022-08-06T01:44:33;10.00;99.90
16247;DHT22;8231;50.866;7.944;2022-08-06T01:47:05;10.00;99.90
16247;DHT22;8231;50.866;7.944;2022-08-06T01:49:45;9.90;99.90
16247;DHT22;8231;50.866;7.944;2022-08-06T01:52:31;9.90;99.90
16247;DHT22;8231;50.866;7.944;2022-08-06T01:55:06;9.90;99.90
16247;DHT22;8231;50.866;7.944;2022-08-06T01:57:41;9.80;99.90
16247;DHT22;8231;50.866;7.944;2022-08-06T02:00:37;9.80;99.90
16247;DHT22;8231;50.866;7.944;2022-08-06T02:03:16;9.80;99.90
16247;DHT22;8231;50.866;7.944;2022-08-06T02:05:49;9.80;99.90
16247;DHT22;8231;50.866;7.944;2022-08-06T02:08:22;9.80;99.90
16247;DHT22;8231;50.866;7.944;2022-08-06T02:11:08;9.80;99.90
16247;DHT22;8231;50.866;7.944;2022-08-06T02:13:58;9.70;99.90
16247;DHT22;8231;50.866;7.944;2022-08-06T02:16:33;9.70;99.90
16247;DHT22;8231;50.866;7.944;2022-08-06T02:19:10;9.70;99.90
16247;DHT22;8231;50.866;7.944;2022-08-06T02:21:44;9.70;99.90
16247;DHT22;8231;50.866;7.944;2022-08-06T02:24:19;9.60;99.90
16247;DHT22;8231;50.866;7.944;2022-08-06T02:26:50;9.50;99.90
16247;DHT22;8231;50.866;7.944;2022-08-06T02:29:20;9.50;99.90
16247;DHT22;8231;50.866;7.944;2022-08-06T02:31:52;9.40;99.90
16247;DHT22;8231;50.866;7.944;2022-08-06T02:34:27;9.40;99.90
16247;DHT22;8231;50.866;7.944;2022-08-06T02:37:02;9.50;99.90
16247;DHT22;8231;50.866;7.944;2022-08-06T02:39:37;9.40;99.90
16247;DHT22;8231;50.866;7.944;2022-08-06T02:42:23;9.50;99.90
16247;DHT22;8231;50.866;7.944;2022-08-06T02:44:59;9.40;99.90
16247;DHT22;8231;50.866;7.944;2022-08-06T02:47:36;9.40;99.90
16247;DHT22;8231;50.866;7.944;2022-08-06T02:50:29;9.30;99.90
16247;DHT22;8231;50.866;7.944;2022-08-06T02:53:06;9.20;99.90
16247;DHT22;8231;50.866;7.944;2022-08-06T02:55:54;9.20;99.90
16247;DHT22;8231;50.866;7.944;2022-08-06T02:58:29;9.20;99.90
16247;DHT22;8231;50.866;7.944;2022-08-06T03:01:07;9.10;99.90
16247;DHT22;8231;50.866;7.944;2022-08-06T03:03:38;9.10;99.90
16247;DHT22;8231;50.866;7.944;2022-08-06T03:06:26;9.00;99.90
16247;DHT22;8231;50.866;7.944;2022-08-06T03:08:57;9.00;99.90
16247;DHT22;8231;50.866;7.944;2022-08-06T03:11:30;9.00;99.90
16247;DHT22;8231;50.866;7.944;2022-08-06T03:14:01;8.90;99.90
16247;DHT22;8231;50.866;7.944;2022-08-06T03:16:52;8.90;99.90
16247;DHT22;8231;50.866;7.944;2022-08-06T03:19:27;8.90;99.90
16247;DHT22;8231;50.866;7.944;2022-08-06T03:22:17;8.90;99.90
16247;DHT22;8231;50.866;7.944;2022-08-06T03:25:05;8.80;99.90
16247;DHT22;8231;50.866;7.944;2022-08-06T03:27:36;8.70;99.90
16247;DHT22;8231;50.866;7.944;2022-08-06T03:30:11;8.70;99.90
16247;DHT22;8231;50.866;7.944;2022-08-06T03:32:59;8.60;99.90
16247;DHT22;8231;50.866;7.944;2022-08-06T03:35:50;8.60;99.90
16247;DHT22;8231;50.866;7.944;2022-08-06T03:38:21;8.50;99.90
16247;DHT22;8231;50.866;7.944;2022-08-06T03:40:56;8.50;99.90
16247;DHT22;8231;50.866;7.944;2022-08-06T03:43:27;8.50;99.90
16247;DHT22;8231;50.866;7.944;2022-08-06T03:46:20;8.50;99.90
16247;DHT22;8231;50.866;7.944;2022-08-06T03:48:50;8.50;99.90
16247;DHT22;8231;50.866;7.944;2022-08-06T03:51:23;8.40;99.90
16247;DHT22;8231;50.866;7.944;2022-08-06T03:54:15;8.40;99.90
16247;DHT22;8231;50.866;7.944;2022-08-06T03:56:56;8.40;99.90
16247;DHT22;8231;50.866;7.944;2022-08-06T03:59:26;8.40;99.90
16247;DHT22;8231;50.866;7.944;2022-08-06T04:02:10;8.40;99.90
16247;DHT22;8231;50.866;7.944;2022-08-06T04:04:59;8.40;99.90
16247;DHT22;8231;50.866;7.944;2022-08-06T04:07:33;8.40;99.90
16247;DHT22;8231;50.866;7.944;2022-08-06T04:10:24;8.40;99.90
16247;DHT22;8231;50.866;7.944;2022-08-06T04:13:03;8.30;99.90
16247;DHT22;8231;50.866;7.944;2022-08-06T04:15:53;8.30;99.90
16247;DHT22;8231;50.866;7.944;2022-08-06T04:18:24;8.20;99.90
16247;DHT22;8231;50.866;7.944;2022-08-06T04:20:57;8.30;99.90
16247;DHT22;8231;50.866;7.944;2022-08-06T04:23:47;8.20;99.90
16247;DHT22;8231;50.866;7.944;2022-08-06T04:26:16;8.30;99.90
16247;DHT22;8231;50.866;7.944;2022-08-06T04:28:48;8.30;99.90
16247;DHT22;8231;50.866;7.944;2022-08-06T04:31:26;8.30;99.90
16247;DHT22;8231;50.866;7.944;2022-08-06T04:34:19;8.30;99.90
16247;DHT22;8231;50.866;7.944;2022-08-06T04:36:55;8.30;99.90
16247;DHT22;8231;50.866;7.944;2022-08-06T04:39:30;8.30;99.90
16247;DHT22;8231;50.866;7.944;2022-08-06T04:42:05;8.40;99.90
16247;DHT22;8231;50.866;7.944;2022-08-06T04:44:35;8.40;99.90
16247;DHT22;8231;50.866;7.944;2022-08-06T04:47:11;8.40;99.90
16247;DHT22;8231;50.866;7.944;2022-08-06T04:49:41;8.40;99.90
16247;DHT22;8231;50.866;7.944;2022-08-06T04:52:29;8.40;99.90
16247;DHT22;8231;50.866;7.944;2022-08-06T04:55:18;8.50;99.90
16247;DHT22;8231;50.866;7.944;2022-08-06T04:58:00;8.50;99.90
16247;DHT22;8231;50.866;7.944;2022-08-06T05:00:30;8.50;99.90
16247;DHT22;8231;50.866;7.944;2022-08-06T05:03:18;8.60;99.90
16247;DHT22;8231;50.866;7.944;2022-08-06T05:06:10;8.50;99.90
16247;DHT22;8231;50.866;7.944;2022-08-06T05:08:43;8.60;99.90
16247;DHT22;8231;50.866;7.944;2022-08-06T05:11:22;8.70;99.90
16247;DHT22;8231;50.866;7.944;2022-08-06T05:13:54;9.20;99.90
16247;DHT22;8231;50.866;7.944;2022-08-06T05:16:25;9.70;99.90
16247;DHT22;8231;50.866;7.944;2022-08-06T05:19:00;10.30;99.90
16247;DHT22;8231;50.866;7.944;2022-08-06T05:21:49;10.80;99.90
16247;DHT22;8231;50.866;7.944;2022-08-06T05:24:39;11.30;99.90
16247;DHT22;8231;50.866;7.944;2022-08-06T05:27:29;11.60;99.90
16247;DHT22;8231;50.866;7.944;2022-08-06T05:30:17;12.10;99.90
16247;DHT22;8231;50.866;7.944;2022-08-06T05:32:47;12.60;99.90
16247;DHT22;8231;50.866;7.944;2022-08-06T05:35:19;12.90;99.90
16247;DHT22;8231;50.866;7.944;2022-08-06T05:38:05;13.50;99.90
16247;DHT22;8231;50.866;7.944;2022-08-06T05:40:38;14.00;99.90
16247;DHT22;8231;50.866;7.944;2022-08-06T05:43:25;14.40;99.90
16247;DHT22;8231;50.866;7.944;2022-08-06T05:46:16;14.90;99.90
16247;DHT22;8231;50.866;7.944;2022-08-06T05:49:00;15.60;99.90
16247;DHT22;8231;50.866;7.944;2022-08-06T05:51:52;16.20;99.90
16247;DHT22;8231;50.866;7.944;2022-08-06T05:54:26;16.60;99.90
16247;DHT22;8231;50.866;7.944;2022-08-06T05:57:00;17.30;99.90
16247;DHT22;8231;50.866;7.944;2022-08-06T05:59:35;18.10;99.90
16247;DHT22;8231;50.866;7.944;2022-08-06T06:02:26;18.90;99.90
16247;DHT22;8231;50.866;7.944;2022-08-06T06:04:58;19.20;99.90
16247;DHT22;8231;50.866;7.944;2022-08-06T06:07:47;19.80;99.90
16247;DHT22;8231;50.866;7.944;2022-08-06T06:10:36;20.60;99.90
16247;DHT22;8231;50.866;7.944;2022-08-06T06:13:09;21.30;99.90
16247;DHT22;8231;50.866;7.944;2022-08-06T06:16:09;21.80;99.90
16247;DHT22;8231;50.866;7.944;2022-08-06T06:18:59;22.30;99.30
16247;DHT22;8231;50.866;7.944;2022-08-06T06:21:51;22.70;99.60
16247;DHT22;8231;50.866;7.944;2022-08-06T06:24:26;23.20;97.40
16247;DHT22;8231;50.866;7.944;2022-08-06T06:26:59;23.30;96.10
16247;DHT22;8231;50.866;7.944;2022-08-06T06:29:35;23.50;96.00
16247;DHT22;8231;50.866;7.944;2022-08-06T06:32:35;23.60;95.10
16247;DHT22;8231;50.866;7.944;2022-08-06T06:35:17;23.30;94.10
16247;DHT22;8231;50.866;7.944;2022-08-06T06:37:56;23.20;95.20
16247;DHT22;8231;50.866;7.944;2022-08-06T06:40:39;23.50;94.30
16247;DHT22;8231;50.866;7.944;2022-08-06T06:43:33;23.60;92.60
16247;DHT22;8231;50.866;7.944;2022-08-06T06:46:16;23.80;93.10
16247;DHT22;8231;50.866;7.944;2022-08-06T06:49:11;24.00;90.70
16247;DHT22;8231;50.866;7.944;2022-08-06T06:52:05;24.50;91.00
16247;DHT22;8231;50.866;7.944;2022-08-06T06:54:41;24.60;90.20
16247;DHT22;8231;50.866;7.944;2022-08-06T06:57:30;24.60;89.00
16247;DHT22;8231;50.866;7.944;2022-08-06T07:00:11;24.90;87.20
16247;DHT22;8231;50.866;7.944;2022-08-06T07:03:00;24.90;86.20
16247;DHT22;8231;50.866;7.944;2022-08-06T07:05:32;25.00;84.90
16247;DHT22;8231;50.866;7.944;2022-08-06T07:08:23;25.10;84.70
16247;DHT22;8231;50.866;7.944;2022-08-06T07:11:08;25.40;83.30
16247;DHT22;8231;50.866;7.944;2022-08-06T07:13:37;25.60;82.40
16247;DHT22;8231;50.866;7.944;2022-08-06T07:16:19;25.70;82.00
16247;DHT22;8231;50.866;7.944;2022-08-06T07:19:03;25.40;82.90
16247;DHT22;8231;50.866;7.944;2022-08-06T07:21:39;26.30;82.00
16247;DHT22;8231;50.866;7.944;2022-08-06T07:24:09;26.80;79.90
16247;DHT22;8231;50.866;7.944;2022-08-06T07:26:59;26.80;75.80
16247;DHT22;8231;50.866;7.944;2022-08-06T07:29:30;26.80;77.90
16247;DHT22;8231;50.866;7.944;2022-08-06T07:32:19;26.80;75.70
16247;DHT22;8231;50.866;7.944;2022-08-06T07:34:59;26.50;73.00
16247;DHT22;8231;50.866;7.944;2022-08-06T07:37:43;26.10;74.60
16247;DHT22;8231;50.866;7.944;2022-08-06T07:40:18;26.50;72.60
16247;DHT22;8231;50.866;7.944;2022-08-06T07:42:54;26.60;71.80
16247;DHT22;8231;50.866;7.944;2022-08-06T07:45:24;26.50;72.50
16247;DHT22;8231;50.866;7.944;2022-08-06T07:48:16;26.60;71.90
16247;DHT22;8231;50.866;7.944;2022-08-06T07:50:51;27.00;70.00
16247;DHT22;8231;50.866;7.944;2022-08-06T07:53:22;27.40;72.90
16247;DHT22;8231;50.866;7.944;2022-08-06T07:56:11;27.70;67.10
16247;DHT22;8231;50.866;7.944;2022-08-06T07:58:42;27.40;67.30
16247;DHT22;8231;50.866;7.944;2022-08-06T08:01:12;27.20;66.80
16247;DHT22;8231;50.866;7.944;2022-08-06T08:03:45;27.80;68.90
16247;DHT22;8231;50.866;7.944;2022-08-06T08:06:51;27.90;66.10
16247;DHT22;8231;50.866;7.944;2022-08-06T08:09:22;28.30;61.50
16247;DHT22;8231;50.866;7.944;2022-08-06T08:12:12;28.60;61.70
16247;DHT22;8231;50.866;7.944;2022-08-06T08:15:02;28.50;62.40
16247;DHT22;8231;50.866;7.944;2022-08-06T08:17:43;27.90;61.00
16247;DHT22;8231;50.866;7.944;2022-08-06T08:20:25;27.80;59.70
16247;DHT22;8231;50.866;7.944;2022-08-06T08:23:02;27.90;60.20
16247;DHT22;8231;50.866;7.944;2022-08-06T08:25:32;27.80;58.30
16247;DHT22;8231;50.866;7.944;2022-08-06T08:28:07;27.50;59.50
16247;DHT22;8231;50.866;7.944;2022-08-06T08:30:40;27.60;58.50
16247;DHT22;8231;50.866;7.944;2022-08-06T08:33:10;27.50;58.60
16247;DHT22;8231;50.866;7.944;2022-08-06T08:35:44;27.90;60.30
16247;DHT22;8231;50.866;7.944;2022-08-06T08:38:27;28.50;58.30
16247;DHT22;8231;50.866;7.944;2022-08-06T08:41:00;28.60;57.90
16247;DHT22;8231;50.866;7.944;2022-08-06T08:43:32;28.80;58.70
16247;DHT22;8231;50.866;7.944;2022-08-06T08:46:22;28.80;57.60
16247;DHT22;8231;50.866;7.944;2022-08-06T08:49:00;28.80;55.50
16247;DHT22;8231;50.866;7.944;2022-08-06T08:51:32;29.00;54.70
16247;DHT22;8231;50.866;7.944;2022-08-06T08:54:16;29.50;53.50
16247;DHT22;8231;50.866;7.944;2022-08-06T08:56:47;29.70;55.60
16247;DHT22;8231;50.866;7.944;2022-08-06T08:59:36;29.70;51.40
16247;DHT22;8231;50.866;7.944;2022-08-06T09:02:25;29.10;53.10
16247;DHT22;8231;50.866;7.944;2022-08-06T09:04:54;28.80;51.70
16247;DHT22;8231;50.866;7.944;2022-08-06T09:07:25;28.30;53.70
16247;DHT22;8231;50.866;7.944;2022-08-06T09:10:04;28.10;53.00
16247;DHT22;8231;50.866;7.944;2022-08-06T09:12:36;27.20;55.70
16247;DHT22;8231;50.866;7.944;2022-08-06T09:15:14;26.30;56.10
16247;DHT22;8231;50.866;7.944;2022-08-06T09:17:44;25.80;57.20
16247;DHT22;8231;50.866;7.944;2022-08-06T09:20:34;26.00;57.40
16247;DHT22;8231;50.866;7.944;2022-08-06T09:23:03;25.70;58.90
16247;DHT22;8231;50.866;7.944;2022-08-06T09:25:42;25.80;59.60
16247;DHT22;8231;50.866;7.944;2022-08-06T09:28:31;26.10;55.50
16247;DHT22;8231;50.866;7.944;2022-08-06T09:31:04;26.10;55.80
16247;DHT22;8231;50.866;7.944;2022-08-06T09:33:58;26.10;57.50
16247;DHT22;8231;50.866;7.944;2022-08-06T09:36:48;25.60;59.00
16247;DHT22;8231;50.866;7.944;2022-08-06T09:39:30;25.30;59.00
16247;DHT22;8231;50.866;7.944;2022-08-06T09:42:36;25.20;59.20
16247;DHT22;8231;50.866;7.944;2022-08-06T09:45:07;25.70;57.80
16247;DHT22;8231;50.866;7.944;2022-08-06T09:47:43;25.30;58.60
16247;DHT22;8231;50.866;7.944;2022-08-06T09:50:36;25.40;59.10
16247;DHT22;8231;50.866;7.944;2022-08-06T09:53:04;25.30;57.00
16247;DHT22;8231;50.866;7.944;2022-08-06T09:55:41;25.10;59.40
16247;DHT22;8231;50.866;7.944;2022-08-06T09:58:10;24.90;57.90
16247;DHT22;8231;50.866;7.944;2022-08-06T10:00:40;24.70;58.60
16247;DHT22;8231;50.866;7.944;2022-08-06T10:03:17;24.30;58.40
16247;DHT22;8231;50.866;7.944;2022-08-06T10:06:07;23.60;60.20
16247;DHT22;8231;50.866;7.944;2022-08-06T10:08:37;23.50;62.10
16247;DHT22;8231;50.866;7.944;2022-08-06T10:11:06;23.60;61.30
16247;DHT22;8231;50.866;7.944;2022-08-06T10:13:35;23.50;62.10
16247;DHT22;8231;50.866;7.944;2022-08-06T10:16:20;23.60;61.20
16247;DHT22;8231;50.866;7.944;2022-08-06T10:18:56;23.60;59.60
16247;DHT22;8231;50.866;7.944;2022-08-06T10:21:44;23.90;60.30
16247;DHT22;8231;50.866;7.944;2022-08-06T10:24:15;24.10;60.40
16247;DHT22;8231;50.866;7.944;2022-08-06T10:27:06;23.70;59.40
16247;DHT22;8231;50.866;7.944;2022-08-06T10:29:42;23.30;60.90
16247;DHT22;8231;50.866;7.944;2022-08-06T10:32:17;23.60;62.80
16247;DHT22;8231;50.866;7.944;2022-08-06T10:34:57;24.50;61.50
16247;DHT22;8231;50.866;7.944;2022-08-06T10:37:39;24.10;55.60
16247;DHT22;8231;50.866;7.944;2022-08-06T10:40:15;24.30;59.20
16247;DHT22;8231;50.866;7.944;2022-08-06T10:42:57;24.20;56.50
16247;DHT22;8231;50.866;7.944;2022-08-06T10:45:27;24.50;58.10
16247;DHT22;8231;50.866;7.944;2022-08-06T10:48:17;25.00;57.60
16247;DHT22;8231;50.866;7.944;2022-08-06T10:51:07;25.50;55.80
16247;DHT22;8231;50.866;7.944;2022-08-06T10:53:37;25.30;54.60
16247;DHT22;8231;50.866;7.944;2022-08-06T10:56:26;25.10;58.10
16247;DHT22;8231;50.866;7.944;2022-08-06T10:59:05;25.20;60.80
16247;DHT22;8231;50.866;7.944;2022-08-06T11:01:38;25.70;59.10
16247;DHT22;8231;50.866;7.944;2022-08-06T11:04:21;26.00;59.00
16247;DHT22;8231;50.866;7.944;2022-08-06T11:07:13;25.90;57.10
16247;DHT22;8231;50.866;7.944;2022-08-06T11:10:24;25.70;54.50
16247;DHT22;8231;50.866;7.944;2022-08-06T11:13:02;25.40;56.60
16247;DHT22;8231;50.866;7.944;2022-08-06T11:15:35;25.40;58.60
16247;DHT22;8231;50.866;7.944;2022-08-06T11:18:06;25.80;56.70
16247;DHT22;8231;50.866;7.944;2022-08-06T11:20:44;26.00;54.50
16247;DHT22;8231;50.866;7.944;2022-08-06T11:23:37;25.80;55.70
16247;DHT22;8231;50.866;7.944;2022-08-06T11:26:33;25.10;54.50
16247;DHT22;8231;50.866;7.944;2022-08-06T11:29:06;24.60;56.40
16247;DHT22;8231;50.866;7.944;2022-08-06T11:31:37;25.00;56.60
16247;DHT22;8231;50.866;7.944;2022-08-06T11:34:41;25.40;55.90
16247;DHT22;8231;50.866;7.944;2022-08-06T11:37:43;25.80;53.20
16247;DHT22;8231;50.866;7.944;2022-08-06T11:40:53;25.50;52.40
16247;DHT22;8231;50.866;7.944;2022-08-06T11:43:47;25.50;52.10
16247;DHT22;8231;50.866;7.944;2022-08-06T11:46:31;25.70;52.90
16247;DHT22;8231;50.866;7.944;2022-08-06T11:49:12;25.80;53.10
16247;DHT22;8231;50.866;7.944;2022-08-06T11:51:48;25.90;51.20
16247;DHT22;8231;50.866;7.944;2022-08-06T11:54:33;26.60;51.30
16247;DHT22;8231;50.866;7.944;2022-08-06T11:57:20;26.50;50.20
16247;DHT22;8231;50.866;7.944;2022-08-06T12:00:18;26.60;49.40
16247;DHT22;8231;50.866;7.944;2022-08-06T12:03:04;25.90;51.30
16247;DHT22;8231;50.866;7.944;2022-08-06T12:05:42;25.30;52.10
16247;DHT22;8231;50.866;7.944;2022-08-06T12:08:25;24.80;54.70
16247;DHT22;8231;50.866;7.944;2022-08-06T12:11:28;25.40;53.70
16247;DHT22;8231;50.866;7.944;2022-08-06T12:14:36;25.80;50.70
16247;DHT22;8231;50.866;7.944;2022-08-06T12:17:10;25.50;51.90
16247;DHT22;8231;50.866;7.944;2022-08-06T12:19:43;25.90;53.40
16247;DHT22;8231;50.866;7.944;2022-08-06T12:22:31;26.60;51.40
16247;DHT22;8231;50.866;7.944;2022-08-06T12:25:01;27.40;51.30
16247;DHT22;8231;50.866;7.944;2022-08-06T12:27:39;27.70;49.30
16247;DHT22;8231;50.866;7.944;2022-08-06T12:30:20;27.90;48.90
16247;DHT22;8231;50.866;7.944;2022-08-06T12:33:05;28.40;48.10
16247;DHT22;8231;50.866;7.944;2022-08-06T12:35:50;28.20;49.30
16247;DHT22;8231;50.866;7.944;2022-08-06T12:38:19;27.70;48.90
16247;DHT22;8231;50.866;7.944;2022-08-06T12:40:55;27.10;45.70
16247;DHT22;8231;50.866;7.944;2022-08-06T12:43:24;26.20;48.00
16247;DHT22;8231;50.866;7.944;2022-08-06T12:46:13;26.20;46.00
16247;DHT22;8231;50.866;7.944;2022-08-06T12:48:49;26.50;48.30
16247;DHT22;8231;50.866;7.944;2022-08-06T12:51:19;26.30;48.30
16247;DHT22;8231;50.866;7.944;2022-08-06T12:53:57;25.90;51.30
16247;DHT22;8231;50.866;7.944;2022-08-06T12:56:27;25.70;49.80
16247;DHT22;8231;50.866;7.944;2022-08-06T12:59:04;25.60;51.30
16247;DHT22;8231;50.866;7.944;2022-08-06T13:01:50;25.70;50.20
16247;DHT22;8231;50.866;7.944;2022-08-06T13:04:43;25.60;51.90
16247;DHT22;8231;50.866;7.944;2022-08-06T13:07:13;25.90;52.40
16247;DHT22;8231;50.866;7.944;2022-08-06T13:09:46;25.90;50.00
16247;DHT22;8231;50.866;7.944;2022-08-06T13:12:34;25.70;49.30
16247;DHT22;8231;50.866;7.944;2022-08-06T13:15:24;25.10;48.60
16247;DHT22;8231;50.866;7.944;2022-08-06T13:18:14;25.00;49.70
16247;DHT22;8231;50.866;7.944;2022-08-06T13:21:15;24.70;50.80
16247;DHT22;8231;50.866;7.944;2022-08-06T13:23:46;24.70;51.00
16247;DHT22;8231;50.866;7.944;2022-08-06T13:26:17;24.50;50.00
16247;DHT22;8231;50.866;7.944;2022-08-06T13:29:04;24.70;51.00
16247;DHT22;8231;50.866;7.944;2022-08-06T13:32:05;24.80;51.50
16247;DHT22;8231;50.866;7.944;2022-08-06T13:34:55;25.20;52.70
16247;DHT22;8231;50.866;7.944;2022-08-06T13:37:44;25.20;50.00
16247;DHT22;8231;50.866;7.944;2022-08-06T13:40:40;24.80;51.10
16247;DHT22;8231;50.866;7.944;2022-08-06T13:43:18;24.60;48.90
16247;DHT22;8231;50.866;7.944;2022-08-06T13:46:08;24.60;49.40
16247;DHT22;8231;50.866;7.944;2022-08-06T13:48:47;24.50;50.80
16247;DHT22;8231;50.866;7.944;2022-08-06T13:51:20;24.70;51.30
16247;DHT22;8231;50.866;7.944;2022-08-06T13:53:56;24.80;51.00
16247;DHT22;8231;50.866;7.944;2022-08-06T13:56:39;24.80;51.60
16247;DHT22;8231;50.866;7.944;2022-08-06T13:59:10;25.30;50.50
16247;DHT22;8231;50.866;7.944;2022-08-06T14:01:43;25.40;51.50
16247;DHT22;8231;50.866;7.944;2022-08-06T14:04:16;25.30;51.40
16247;DHT22;8231;50.866;7.944;2022-08-06T14:06:47;24.80;52.10
16247;DHT22;8231;50.866;7.944;2022-08-06T14:09:21;24.70;50.70
16247;DHT22;8231;50.866;7.944;2022-08-06T14:11:55;24.70;51.00
16247;DHT22;8231;50.866;7.944;2022-08-06T14:14:25;24.60;51.50
16247;DHT22;8231;50.866;7.944;2022-08-06T14:16:55;24.50;50.60
16247;DHT22;8231;50.866;7.944;2022-08-06T14:19:24;24.40;51.40
16247;DHT22;8231;50.866;7.944;2022-08-06T14:22:12;24.70;52.40
16247;DHT22;8231;50.866;7.944;2022-08-06T14:24:41;24.70;50.40
16247;DHT22;8231;50.866;7.944;2022-08-06T14:27:20;24.90;51.30
16247;DHT22;8231;50.866;7.944;2022-08-06T14:29:50;25.00;50.80
16247;DHT22;8231;50.866;7.944;2022-08-06T14:32:39;25.10;50.60
16247;DHT22;8231;50.866;7.944;2022-08-06T14:35:08;25.10;50.80
16247;DHT22;8231;50.866;7.944;2022-08-06T14:37:40;24.90;49.40
16247;DHT22;8231;50.866;7.944;2022-08-06T14:40:23;24.20;49.80
16247;DHT22;8231;50.866;7.944;2022-08-06T14:43:29;24.10;50.90
16247;DHT22;8231;50.866;7.944;2022-08-06T14:46:27;23.80;50.80
16247;DHT22;8231;50.866;7.944;2022-08-06T14:48:59;23.80;50.60
16247;DHT22;8231;50.866;7.944;2022-08-06T14:51:35;23.80;51.00
16247;DHT22;8231;50.866;7.944;2022-08-06T14:54:23;23.80;51.20
16247;DHT22;8231;50.866;7.944;2022-08-06T14:57:00;23.90;50.60
16247;DHT22;8231;50.866;7.944;2022-08-06T14:59:43;24.00;52.40
16247;DHT22;8231;50.866;7.944;2022-08-06T15:02:18;24.20;51.00
16247;DHT22;8231;50.866;7.944;2022-08-06T15:04:50;24.20;51.30
16247;DHT22;8231;50.866;7.944;2022-08-06T15:07:18;24.00;52.10
16247;DHT22;8231;50.866;7.944;2022-08-06T15:09:51;24.10;52.50
16247;DHT22;8231;50.866;7.944;2022-08-06T15:12:41;24.00;52.90
16247;DHT22;8231;50.866;7.944;2022-08-06T15:15:19;24.10;51.50
16247;DHT22;8231;50.866;7.944;2022-08-06T15:18:02;23.80;51.80
16247;DHT22;8231;50.866;7.944;2022-08-06T15:20:50;23.70;51.40
16247;DHT22;8231;50.866;7.944;2022-08-06T15:23:20;23.70;52.30
16247;DHT22;8231;50.866;7.944;2022-08-06T15:25:57;23.30;51.40
16247;DHT22;8231;50.866;7.944;2022-08-06T15:28:46;23.20;51.40
16247;DHT22;8231;50.866;7.944;2022-08-06T15:31:15;23.40;52.30
16247;DHT22;8231;50.866;7.944;2022-08-06T15:33:46;23.20;51.90
16247;DHT22;8231;50.866;7.944;2022-08-06T15:36:15;23.20;52.10
16247;DHT22;8231;50.866;7.944;2022-08-06T15:38:45;23.20;53.00
16247;DHT22;8231;50.866;7.944;2022-08-06T15:41:14;23.60;53.50
16247;DHT22;8231;50.866;7.944;2022-08-06T15:43:43;23.40;53.50
16247;DHT22;8231;50.866;7.944;2022-08-06T15:46:18;23.60;54.00
16247;DHT22;8231;50.866;7.944;2022-08-06T15:48:55;23.50;52.30
16247;DHT22;8231;50.866;7.944;2022-08-06T15:51:26;23.20;52.10
16247;DHT22;8231;50.866;7.944;2022-08-06T15:53:57;23.10;53.20
16247;DHT22;8231;50.866;7.944;2022-08-06T15:56:27;23.00;52.90
16247;DHT22;8231;50.866;7.944;2022-08-06T15:59:06;22.90;53.00
16247;DHT22;8231;50.866;7.944;2022-08-06T16:01:41;22.90;53.30
16247;DHT22;8231;50.866;7.944;2022-08-06T16:04:29;22.70;52.70
16247;DHT22;8231;50.866;7.944;2022-08-06T16:07:03;22.60;53.60
16247;DHT22;8231;50.866;7.944;2022-08-06T16:09:32;22.70;53.00
16247;DHT22;8231;50.866;7.944;2022-08-06T16:12:21;22.70;52.40
16247;DHT22;8231;50.866;7.944;2022-08-06T16:14:49;22.70;52.80
16247;DHT22;8231;50.866;7.944;2022-08-06T16:17:25;22.80;52.90
16247;DHT22;8231;50.866;7.944;2022-08-06T16:20:15;22.70;53.30
16247;DHT22;8231;50.866;7.944;2022-08-06T16:22:49;22.80;53.30
16247;DHT22;8231;50.866;7.944;2022-08-06T16:25:19;22.70;54.00
16247;DHT22;8231;50.866;7.944;2022-08-06T16:27:48;22.50;53.20
16247;DHT22;8231;50.866;7.944;2022-08-06T16:30:18;22.40;53.40
16247;DHT22;8231;50.866;7.944;2022-08-06T16:32:48;22.40;54.10
16247;DHT22;8231;50.866;7.944;2022-08-06T16:35:17;22.40;53.70
16247;DHT22;8231;50.866;7.944;2022-08-06T16:37:48;22.30;53.80
16247;DHT22;8231;50.866;7.944;2022-08-06T16:40:19;22.30;54.30
16247;DHT22;8231;50.866;7.944;2022-08-06T16:42:50;22.40;53.90
16247;DHT22;8231;50.866;7.944;2022-08-06T16:45:19;22.20;53.90
16247;DHT22;8231;50.866;7.944;2022-08-06T16:47:51;22.30;53.80
16247;DHT22;8231;50.866;7.944;2022-08-06T16:50:39;22.30;54.90
16247;DHT22;8231;50.866;7.944;2022-08-06T16:53:08;22.20;55.80
16247;DHT22;8231;50.866;7.944;2022-08-06T16:55:57;22.00;54.90
16247;DHT22;8231;50.866;7.944;2022-08-06T16:58:26;22.20;55.90
16247;DHT22;8231;50.866;7.944;2022-08-06T17:01:03;22.30;56.40
16247;DHT22;8231;50.866;7.944;2022-08-06T17:03:53;22.30;56.70
16247;DHT22;8231;50.866;7.944;2022-08-06T17:06:41;22.20;54.20
16247;DHT22;8231;50.866;7.944;2022-08-06T17:09:09;22.00;54.20